sensor_id;sensor_type;location;lat;lon;timestamp;pressure;altitude;pressure_sealevel;temperature;humidity
9187;BME280;7273;48.902;9.410;2022-08-21T00:01:17;98129.97;;;16.29;71.41
9187;BME280;7273;48.902;9.410;2022-08-21T00:03:44;98133.72;;;16.33;71.33
9187;BME280;7273;48.902;9.410;2022-08-21T00:06:10;98138.91;;;16.21;71.75
9187;BME280;7273;48.902;9.410;2022-08-21T00:08:35;98137.31;;;16.20;71.61
9187;BME280;7273;48.902;9.410;2022-08-21T00:11:02;98132.28;;;16.13;71.95
9187;BME280;7273;48.902;9.410;2022-08-21T00:13:28;98126.53;;;16.15;71.87
9187;BME280;7273;48.902;9.410;2022-08-21T00:15:54;98129.50;;;16.05;71.89
9187;BME280;7273;48.902;9.410;2022-08-21T00:18:19;98132.22;;;16.05;71.95
9187;BME280;7273;48.902;9.410;2022-08-21T00:20:46;98139.72;;;15.99;72.18
9187;BME280;7273;48.902;9.410;2022-08-21T00:23:12;98133.47;;;15.99;72.06
9187;BME280;7273;48.902;9.410;2022-08-21T00:25:38;98133.75;;;15.97;72.12
9187;BME280;7273;48.902;9.410;2022-08-21T00:28:04;98127.00;;;15.95;72.26
9187;BME280;7273;48.902;9.410;2022-08-21T00:30:30;98122.28;;;15.87;72.22
9187;BME280;7273;48.902;9.410;2022-08-21T00:32:56;98123.00;;;15.92;72.20
9187;BME280;7273;48.902;9.410;2022-08-21T00:35:27;98124.72;;;15.88;72.39
9187;BME280;7273;48.902;9.410;2022-08-21T00:37:54;98128.44;;;15.92;72.15
9187;BME280;7273;48.902;9.410;2022-08-21T00:40:31;98117.97;;;15.86;72.51
9187;BME280;7273;48.902;9.410;2022-08-21T00:42:57;98128.25;;;15.89;72.38
9187;BME280;7273;48.902;9.410;2022-08-21T00:45:23;98113.91;;;15.83;72.53
9187;BME280;7273;48.902;9.410;2022-08-21T00:47:50;98110.38;;;15.83;72.41
9187;BME280;7273;48.902;9.410;2022-08-21T00:50:16;98109.28;;;15.84;72.67
9187;BME280;7273;48.902;9.410;2022-08-21T00:52:43;98112.63;;;15.81;72.36
9187;BME280;7273;48.902;9.410;2022-08-21T00:55:09;98120.63;;;15.77;72.56
9187;BME280;7273;48.902;9.410;2022-08-21T00:57:40;98120.94;;;15.76;72.53
9187;BME280;7273;48.902;9.410;2022-08-21T01:00:12;98123.47;;;15.72;72.62
9187;BME280;7273;48.902;9.410;2022-08-21T01:02:38;98128.72;;;15.69;72.66
9187;BME280;7273;48.902;9.410;2022-08-21T01:05:05;98117.31;;;15.67;72.79
9187;BME280;7273;48.902;9.410;2022-08-21T01:07:30;98116.31;;;15.63;72.88
9187;BME280;7273;48.902;9.410;2022-08-21T01:09:56;98121.59;;;15.59;73.05
9187;BME280;7273;48.902;9.410;2022-08-21T01:12:23;98118.75;;;15.64;72.67
9187;BME280;7273;48.902;9.410;2022-08-21T01:14:48;98113.72;;;15.58;72.83
9187;BME280;7273;48.902;9.410;2022-08-21T01:17:15;98115.44;;;15.54;73.00
9187;BME280;7273;48.902;9.410;2022-08-21T01:19:41;98111.88;;;15.53;72.86
9187;BME280;7273;48.902;9.410;2022-08-21T01:22:07;98110.91;;;15.49;72.94
9187;BME280;7273;48.902;9.410;2022-08-21T01:24:33;98115.53;;;15.49;72.88
9187;BME280;7273;48.902;9.410;2022-08-21T01:26:59;98109.88;;;15.45;73.08
9187;BME280;7273;48.902;9.410;2022-08-21T01:29:38;98106.38;;;15.45;73.18
9187;BME280;7273;48.902;9.410;2022-08-21T01:32:11;98112.22;;;15.38;73.08
9187;BME280;7273;48.902;9.410;2022-08-21T01:34:40;98117.16;;;15.36;73.07
9187;BME280;7273;48.902;9.410;2022-08-21T01:37:06;98113.63;;;15.36;73.25
9187;BME280;7273;48.902;9.410;2022-08-21T01:39:33;98112.63;;;15.32;73.21
9187;BME280;7273;48.902;9.410;2022-08-21T01:41:58;98108.06;;;15.27;73.25
9187;BME280;7273;48.902;9.410;2022-08-21T01:44:24;98109.00;;;15.23;73.23
9187;BME280;7273;48.902;9.410;2022-08-21T01:46:50;98101.94;;;15.22;73.17
9187;BME280;7273;48.902;9.410;2022-08-21T01:49:17;98105.59;;;15.17;73.25
9187;BME280;7273;48.902;9.410;2022-08-21T01:51:42;98104.97;;;15.20;73.16
9187;BME280;7273;48.902;9.410;2022-08-21T01:54:08;98109.09;;;15.18;73.09
9187;BME280;7273;48.902;9.410;2022-08-21T01:56:39;98105.38;;;15.14;73.41
9187;BME280;7273;48.902;9.410;2022-08-21T01:59:06;98111.31;;;15.16;73.28
9187;BME280;7273;48.902;9.410;2022-08-21T02:01:31;98104.38;;;15.10;73.32
9187;BME280;7273;48.902;9.410;2022-08-21T02:03:57;98101.97;;;15.08;73.46
9187;BME280;7273;48.902;9.410;2022-08-21T02:06:24;98088.94;;;15.05;73.24
9187;BME280;7273;48.902;9.410;2022-08-21T02:08:50;98093.56;;;15.05;73.58
9187;BME280;7273;48.902;9.410;2022-08-21T02:11:16;98096.91;;;15.02;73.55
9187;BME280;7273;48.902;9.410;2022-08-21T02:13:41;98092.28;;;15.02;73.46
9187;BME280;7273;48.902;9.410;2022-08-21T02:16:07;98093.69;;;15.00;73.67
9187;BME280;7273;48.902;9.410;2022-08-21T02:18:33;98094.19;;;15.02;73.37
9187;BME280;7273;48.902;9.410;2022-08-21T02:20:59;98085.91;;;14.93;73.73
9187;BME280;7273;48.902;9.410;2022-08-21T02:23:24;98086.75;;;14.94;73.83
9187;BME280;7273;48.902;9.410;2022-08-21T02:25:50;98092.50;;;14.92;73.73
9187;BME280;7273;48.902;9.410;2022-08-21T02:28:15;98088.84;;;14.97;73.67
9187;BME280;7273;48.902;9.410;2022-08-21T02:30:43;98095.91;;;14.98;73.36
9187;BME280;7273;48.902;9.410;2022-08-21T02:33:10;98087.63;;;15.03;73.44
9187;BME280;7273;48.902;9.410;2022-08-21T02:35:38;98087.03;;;14.92;73.57
9187;BME280;7273;48.902;9.410;2022-08-21T02:38:07;98091.56;;;14.97;73.25
9187;BME280;7273;48.902;9.410;2022-08-21T02:40:39;98093.31;;;14.93;73.72
9187;BME280;7273;48.902;9.410;2022-08-21T02:43:06;98097.13;;;14.92;73.51
9187;BME280;7273;48.902;9.410;2022-08-21T02:45:32;98096.91;;;14.88;73.40
9187;BME280;7273;48.902;9.410;2022-08-21T02:48:01;98095.53;;;14.91;73.49
9187;BME280;7273;48.902;9.410;2022-08-21T02:50:29;98088.13;;;14.91;73.52
9187;BME280;7273;48.902;9.410;2022-08-21T02:52:56;98088.53;;;14.84;73.62
9187;BME280;7273;48.902;9.410;2022-08-21T02:55:23;98093.00;;;14.80;73.31
9187;BME280;7273;48.902;9.410;2022-08-21T02:57:52;98091.66;;;14.78;73.82
9187;BME280;7273;48.902;9.410;2022-08-21T03:00:18;98085.75;;;14.76;73.72
9187;BME280;7273;48.902;9.410;2022-08-21T03:02:46;98082.22;;;14.75;73.59
9187;BME280;7273;48.902;9.410;2022-08-21T03:05:12;98082.22;;;14.75;73.40
9187;BME280;7273;48.902;9.410;2022-08-21T03:07:39;98083.72;;;14.68;73.78
9187;BME280;7273;48.902;9.410;2022-08-21T03:10:06;98079.69;;;14.65;73.71
9187;BME280;7273;48.902;9.410;2022-08-21T03:12:31;98078.97;;;14.60;73.66
9187;BME280;7273;48.902;9.410;2022-08-21T03:14:57;98085.81;;;14.57;73.85
9187;BME280;7273;48.902;9.410;2022-08-21T03:17:23;98074.72;;;14.54;73.82
9187;BME280;7273;48.902;9.410;2022-08-21T03:19:49;98075.97;;;14.61;73.62
9187;BME280;7273;48.902;9.410;2022-08-21T03:22:15;98077.75;;;14.52;73.89
9187;BME280;7273;48.902;9.410;2022-08-21T03:24:41;98082.09;;;14.53;74.00
9187;BME280;7273;48.902;9.410;2022-08-21T03:27:06;98085.63;;;14.54;73.63
9187;BME280;7273;48.902;9.410;2022-08-21T03:29:33;98082.69;;;14.50;74.07
9187;BME280;7273;48.902;9.410;2022-08-21T03:31:58;98084.19;;;14.43;73.95
9187;BME280;7273;48.902;9.410;2022-08-21T03:34:23;98084.19;;;14.43;74.02
9187;BME280;7273;48.902;9.410;2022-08-21T03:36:49;98088.63;;;14.39;74.06
9187;BME280;7273;48.902;9.410;2022-08-21T03:39:16;98085.72;;;14.35;74.17
9187;BME280;7273;48.902;9.410;2022-08-21T03:41:42;98082.78;;;14.32;74.04
9187;BME280;7273;48.902;9.410;2022-08-21T03:44:07;98089.63;;;14.29;74.30
9187;BME280;7273;48.902;9.410;2022-08-21T03:46:33;98085.91;;;14.25;74.55
9187;BME280;7273;48.902;9.410;2022-08-21T03:48:59;98089.16;;;14.22;74.29
9187;BME280;7273;48.902;9.410;2022-08-21T03:51:24;98094.13;;;14.20;74.31
9187;BME280;7273;48.902;9.410;2022-08-21T03:53:51;98091.69;;;14.19;74.26
9187;BME280;7273;48.902;9.410;2022-08-21T03:56:17;98090.38;;;14.16;74.21
9187;BME280;7273;48.902;9.410;2022-08-21T03:58:42;98103.44;;;14.14;74.52
9187;BME280;7273;48.902;9.410;2022-08-21T04:01:08;98099.41;;;14.12;74.21
9187;BME280;7273;48.902;9.410;2022-08-21T04:03:35;98104.56;;;14.13;74.21
9187;BME280;7273;48.902;9.410;2022-08-21T04:06:01;98102.75;;;14.09;74.20
9187;BME280;7273;48.902;9.410;2022-08-21T04:08:26;98104.03;;;14.11;74.22
9187;BME280;7273;48.902;9.410;2022-08-21T04:10:53;98103.97;;;14.16;74.42
9187;BME280;7273;48.902;9.410;2022-08-21T04:13:20;98102.16;;;14.12;74.34
9187;BME280;7273;48.902;9.410;2022-08-21T04:15:46;98101.72;;;14.05;74.34
9187;BME280;7273;48.902;9.410;2022-08-21T04:18:11;98102.81;;;14.04;74.33
9187;BME280;7273;48.902;9.410;2022-08-21T04:20:37;98108.03;;;14.00;74.43
9187;BME280;7273;48.902;9.410;2022-08-21T04:23:03;98112.38;;;14.01;74.75
9187;BME280;7273;48.902;9.410;2022-08-21T04:25:29;98114.53;;;14.04;74.70
9187;BME280;7273;48.902;9.410;2022-08-21T04:27:54;98117.72;;;14.06;74.60
9187;BME280;7273;48.902;9.410;2022-08-21T04:30:20;98121.88;;;14.04;74.30
9187;BME280;7273;48.902;9.410;2022-08-21T04:32:48;98122.38;;;14.06;74.42
9187;BME280;7273;48.902;9.410;2022-08-21T04:35:18;98125.28;;;14.09;74.26
9187;BME280;7273;48.902;9.410;2022-08-21T04:37:44;98133.19;;;14.11;74.05
9187;BME280;7273;48.902;9.410;2022-08-21T04:40:12;98130.94;;;14.13;74.34
9187;BME280;7273;48.902;9.410;2022-08-21T04:42:49;98138.31;;;14.12;74.10
9187;BME280;7273;48.902;9.410;2022-08-21T04:45:29;98134.19;;;14.15;74.44
9187;BME280;7273;48.902;9.410;2022-08-21T04:47:58;98139.91;;;14.13;74.22
9187;BME280;7273;48.902;9.410;2022-08-21T04:50:40;98144.25;;;14.14;74.58
9187;BME280;7273;48.902;9.410;2022-08-21T04:53:10;98149.69;;;14.14;74.22
9187;BME280;7273;48.902;9.410;2022-08-21T04:55:37;98148.09;;;14.13;74.19
9187;BME280;7273;48.902;9.410;2022-08-21T04:58:07;98143.69;;;14.17;74.28
9187;BME280;7273;48.902;9.410;2022-08-21T05:00:34;98152.09;;;14.16;74.11
9187;BME280;7273;48.902;9.410;2022-08-21T05:03:01;98153.75;;;14.17;73.96
9187;BME280;7273;48.902;9.410;2022-08-21T05:05:28;98148.59;;;14.15;76.15
9187;BME280;7273;48.902;9.410;2022-08-21T05:07:55;98149.97;;;14.13;74.53
9187;BME280;7273;48.902;9.410;2022-08-21T05:10:21;98151.91;;;14.12;74.17
9187;BME280;7273;48.902;9.410;2022-08-21T05:12:48;98161.09;;;14.16;74.00
9187;BME280;7273;48.902;9.410;2022-08-21T05:15:14;98158.28;;;14.21;73.91
9187;BME280;7273;48.902;9.410;2022-08-21T05:17:40;98151.25;;;14.20;73.86
9187;BME280;7273;48.902;9.410;2022-08-21T05:20:07;98156.69;;;14.20;73.86
9187;BME280;7273;48.902;9.410;2022-08-21T05:22:33;98154.81;;;14.16;74.21
9187;BME280;7273;48.902;9.410;2022-08-21T05:24:58;98156.47;;;14.17;74.57
9187;BME280;7273;48.902;9.410;2022-08-21T05:27:24;98156.91;;;14.24;74.56
9187;BME280;7273;48.902;9.410;2022-08-21T05:29:49;98161.78;;;14.40;74.17
9187;BME280;7273;48.902;9.410;2022-08-21T05:32:14;98156.38;;;14.54;73.85
9187;BME280;7273;48.902;9.410;2022-08-21T05:34:40;98156.81;;;14.61;74.14
9187;BME280;7273;48.902;9.410;2022-08-21T05:37:06;98157.44;;;14.85;73.67
9187;BME280;7273;48.902;9.410;2022-08-21T05:39:31;98166.81;;;15.06;73.18
9187;BME280;7273;48.902;9.410;2022-08-21T05:41:57;98157.06;;;15.19;73.01
9187;BME280;7273;48.902;9.410;2022-08-21T05:44:22;98168.88;;;15.41;72.85
9187;BME280;7273;48.902;9.410;2022-08-21T05:46:48;98168.50;;;15.70;72.45
9187;BME280;7273;48.902;9.410;2022-08-21T05:49:13;98168.66;;;15.87;72.08
9187;BME280;7273;48.902;9.410;2022-08-21T05:51:40;98165.16;;;16.08;71.92
9187;BME280;7273;48.902;9.410;2022-08-21T05:54:06;98166.47;;;16.33;71.20
9187;BME280;7273;48.902;9.410;2022-08-21T05:56:31;98174.66;;;16.55;71.16
9187;BME280;7273;48.902;9.410;2022-08-21T05:58:57;98166.31;;;16.82;70.82
9187;BME280;7273;48.902;9.410;2022-08-21T06:01:23;98164.66;;;17.20;70.57
9187;BME280;7273;48.902;9.410;2022-08-21T06:03:48;98169.81;;;17.70;71.73
9187;BME280;7273;48.902;9.410;2022-08-21T06:06:14;98168.41;;;18.15;73.46
9187;BME280;7273;48.902;9.410;2022-08-21T06:08:41;98169.34;;;18.53;75.39
9187;BME280;7273;48.902;9.410;2022-08-21T06:11:07;98170.41;;;18.77;76.83
9187;BME280;7273;48.902;9.410;2022-08-21T06:13:34;98165.63;;;19.12;77.67
9187;BME280;7273;48.902;9.410;2022-08-21T06:16:12;98166.78;;;19.49;77.53
9187;BME280;7273;48.902;9.410;2022-08-21T06:18:39;98168.00;;;19.80;77.98
9187;BME280;7273;48.902;9.410;2022-08-21T06:21:05;98171.63;;;20.14;78.24
9187;BME280;7273;48.902;9.410;2022-08-21T06:23:30;98172.78;;;20.13;78.68
9187;BME280;7273;48.902;9.410;2022-08-21T06:25:56;98175.66;;;20.57;78.76
9187;BME280;7273;48.902;9.410;2022-08-21T06:28:22;98176.91;;;20.60;79.27
9187;BME280;7273;48.902;9.410;2022-08-21T06:30:47;98173.38;;;21.04;79.12
9187;BME280;7273;48.902;9.410;2022-08-21T06:33:13;98170.25;;;20.93;79.19
9187;BME280;7273;48.902;9.410;2022-08-21T06:35:38;98170.50;;;21.00;78.71
9187;BME280;7273;48.902;9.410;2022-08-21T06:38:04;98183.34;;;21.08;77.17
9187;BME280;7273;48.902;9.410;2022-08-21T06:40:32;98179.00;;;21.07;75.77
9187;BME280;7273;48.902;9.410;2022-08-21T06:43:04;98177.91;;;20.88;74.84
9187;BME280;7273;48.902;9.410;2022-08-21T06:45:29;98174.22;;;20.84;73.83
9187;BME280;7273;48.902;9.410;2022-08-21T06:47:55;98172.78;;;20.66;73.43
9187;BME280;7273;48.902;9.410;2022-08-21T06:50:20;98163.53;;;20.70;72.28
9187;BME280;7273;48.902;9.410;2022-08-21T06:52:46;98165.44;;;20.58;71.54
9187;BME280;7273;48.902;9.410;2022-08-21T06:55:11;98167.75;;;20.56;70.78
9187;BME280;7273;48.902;9.410;2022-08-21T06:57:37;98168.03;;;20.22;70.97
9187;BME280;7273;48.902;9.410;2022-08-21T07:00:06;98162.75;;;20.17;70.68
9187;BME280;7273;48.902;9.410;2022-08-21T07:02:33;98161.25;;;19.98;70.70
9187;BME280;7273;48.902;9.410;2022-08-21T07:04:59;98168.38;;;19.99;70.80
9187;BME280;7273;48.902;9.410;2022-08-21T07:07:24;98165.63;;;19.99;70.41
9187;BME280;7273;48.902;9.410;2022-08-21T07:09:50;98168.84;;;20.01;69.90
9187;BME280;7273;48.902;9.410;2022-08-21T07:12:15;98161.72;;;20.00;69.81
9187;BME280;7273;48.902;9.410;2022-08-21T07:14:41;98163.72;;;20.12;69.40
9187;BME280;7273;48.902;9.410;2022-08-21T07:17:07;98163.75;;;19.91;69.37
9187;BME280;7273;48.902;9.410;2022-08-21T07:19:32;98158.94;;;19.88;68.98
9187;BME280;7273;48.902;9.410;2022-08-21T07:22:00;98166.50;;;19.91;68.69
9187;BME280;7273;48.902;9.410;2022-08-21T07:24:26;98158.72;;;19.93;68.30
9187;BME280;7273;48.902;9.410;2022-08-21T07:26:52;98158.69;;;19.73;68.35
9187;BME280;7273;48.902;9.410;2022-08-21T07:29:17;98162.84;;;19.79;68.23
9187;BME280;7273;48.902;9.410;2022-08-21T07:31:43;98154.41;;;19.84;68.05
9187;BME280;7273;48.902;9.410;2022-08-21T07:34:09;98153.88;;;19.90;67.54
9187;BME280;7273;48.902;9.410;2022-08-21T07:36:34;98158.25;;;19.91;67.26
9187;BME280;7273;48.902;9.410;2022-08-21T07:39:00;98162.50;;;19.80;67.33
9187;BME280;7273;48.902;9.410;2022-08-21T07:41:27;98149.53;;;19.69;67.51
9187;BME280;7273;48.902;9.410;2022-08-21T07:43:53;98146.91;;;19.72;67.66
9187;BME280;7273;48.902;9.410;2022-08-21T07:46:19;98151.88;;;19.99;67.02
9187;BME280;7273;48.902;9.410;2022-08-21T07:48:45;98144.84;;;20.11;66.89
9187;BME280;7273;48.902;9.410;2022-08-21T07:51:12;98155.25;;;20.26;66.45
9187;BME280;7273;48.902;9.410;2022-08-21T07:53:38;98149.63;;;20.22;66.56
9187;BME280;7273;48.902;9.410;2022-08-21T07:56:05;98159.09;;;20.45;66.28
9187;BME280;7273;48.902;9.410;2022-08-21T07:58:31;98150.06;;;20.45;66.48
9187;BME280;7273;48.902;9.410;2022-08-21T08:00:57;98151.47;;;20.51;66.23
9187;BME280;7273;48.902;9.410;2022-08-21T08:03:22;98152.78;;;20.45;66.55
9187;BME280;7273;48.902;9.410;2022-08-21T08:05:49;98146.88;;;20.55;66.21
9187;BME280;7273;48.902;9.410;2022-08-21T08:08:14;98142.94;;;20.76;66.04
9187;BME280;7273;48.902;9.410;2022-08-21T08:10:41;98142.25;;;20.79;66.05
9187;BME280;7273;48.902;9.410;2022-08-21T08:13:06;98142.75;;;20.93;65.93
9187;BME280;7273;48.902;9.410;2022-08-21T08:15:32;98137.84;;;20.99;65.83
9187;BME280;7273;48.902;9.410;2022-08-21T08:17:57;98132.13;;;21.28;65.47
9187;BME280;7273;48.902;9.410;2022-08-21T08:20:24;98135.47;;;21.46;65.22
9187;BME280;7273;48.902;9.410;2022-08-21T08:22:53;98131.19;;;21.48;65.21
9187;BME280;7273;48.902;9.410;2022-08-21T08:25:20;98131.44;;;21.55;64.92
9187;BME280;7273;48.902;9.410;2022-08-21T08:27:46;98126.00;;;21.71;64.92
9187;BME280;7273;48.902;9.410;2022-08-21T08:30:13;98125.44;;;21.77;64.35
9187;BME280;7273;48.902;9.410;2022-08-21T08:32:39;98125.34;;;21.62;64.60
9187;BME280;7273;48.902;9.410;2022-08-21T08:35:06;98124.97;;;21.75;64.70
9187;BME280;7273;48.902;9.410;2022-08-21T08:37:33;98115.66;;;21.92;64.44
9187;BME280;7273;48.902;9.410;2022-08-21T08:39:58;98111.53;;;22.25;63.99
9187;BME280;7273;48.902;9.410;2022-08-21T08:42:28;98113.06;;;22.38;64.14
9187;BME280;7273;48.902;9.410;2022-08-21T08:44:58;98113.16;;;22.42;63.78
9187;BME280;7273;48.902;9.410;2022-08-21T08:47:27;98118.94;;;22.37;63.60
9187;BME280;7273;48.902;9.410;2022-08-21T08:50:19;98110.94;;;22.47;61.63
9187;BME280;7273;48.902;9.410;2022-08-21T08:52:57;98108.69;;;22.37;62.73
9187;BME280;7273;48.902;9.410;2022-08-21T08:55:44;98112.44;;;22.57;61.77
9187;BME280;7273;48.902;9.410;2022-08-21T08:58:18;98110.84;;;22.72;62.35
9187;BME280;7273;48.902;9.410;2022-08-21T09:00:47;98113.78;;;22.79;62.82
9187;BME280;7273;48.902;9.410;2022-08-21T09:03:15;98113.00;;;22.94;62.69
9187;BME280;7273;48.902;9.410;2022-08-21T09:08:36;98103.56;;;23.10;61.92
9187;BME280;7273;48.902;9.410;2022-08-21T09:13:39;98097.94;;;23.22;56.58
9187;BME280;7273;48.902;9.410;2022-08-21T09:19:34;98097.59;;;23.39;59.61
9187;BME280;7273;48.902;9.410;2022-08-21T09:22:14;98088.94;;;23.75;60.65
9187;BME280;7273;48.902;9.410;2022-08-21T09:27:25;98091.59;;;23.87;60.91
9187;BME280;7273;48.902;9.410;2022-08-21T09:29:53;98092.41;;;24.07;60.95
9187;BME280;7273;48.902;9.410;2022-08-21T09:32:21;98091.53;;;24.03;53.78
9187;BME280;7273;48.902;9.410;2022-08-21T09:35:00;98090.81;;;24.06;60.35
9187;BME280;7273;48.902;9.410;2022-08-21T09:37:28;98092.03;;;23.89;62.47
9187;BME280;7273;48.902;9.410;2022-08-21T09:39:58;98089.66;;;23.53;62.30
9187;BME280;7273;48.902;9.410;2022-08-21T09:42:29;98088.41;;;24.05;60.87
9187;BME280;7273;48.902;9.410;2022-08-21T09:45:17;98081.56;;;24.37;58.89
9187;BME280;7273;48.902;9.410;2022-08-21T09:47:43;98084.28;;;24.56;60.56
9187;BME280;7273;48.902;9.410;2022-08-21T09:50:17;98085.28;;;24.86;59.66
9187;BME280;7273;48.902;9.410;2022-08-21T09:52:48;98076.03;;;25.01;59.91
9187;BME280;7273;48.902;9.410;2022-08-21T09:55:18;98074.34;;;25.19;59.72
9187;BME280;7273;48.902;9.410;2022-08-21T09:58:05;98079.25;;;25.29;59.54
9187;BME280;7273;48.902;9.410;2022-08-21T10:00:34;98076.78;;;25.47;59.29
9187;BME280;7273;48.902;9.410;2022-08-21T10:05:38;98073.03;;;25.62;59.15
9187;BME280;7273;48.902;9.410;2022-08-21T10:08:04;98071.59;;;25.71;58.94
9187;BME280;7273;48.902;9.410;2022-08-21T10:10:32;98073.41;;;25.90;58.61
9187;BME280;7273;48.902;9.410;2022-08-21T10:13:07;98061.75;;;26.03;57.83
9187;BME280;7273;48.902;9.410;2022-08-21T10:15:54;98063.13;;;25.90;56.12
9187;BME280;7273;48.902;9.410;2022-08-21T10:18:35;98060.28;;;26.13;57.31
9187;BME280;7273;48.902;9.410;2022-08-21T10:21:23;98059.59;;;26.23;55.03
9187;BME280;7273;48.902;9.410;2022-08-21T10:26:48;98049.50;;;26.41;55.21
9187;BME280;7273;48.902;9.410;2022-08-21T10:32:05;98052.56;;;26.66;54.49
9187;BME280;7273;48.902;9.410;2022-08-21T10:48:35;98042.69;;;27.15;55.93
9187;BME280;7273;48.902;9.410;2022-08-21T10:51:13;98037.34;;;27.43;54.66
9187;BME280;7273;48.902;9.410;2022-08-21T10:53:51;98037.06;;;27.62;54.93
9187;BME280;7273;48.902;9.410;2022-08-21T10:56:21;98037.25;;;27.91;54.56
9187;BME280;7273;48.902;9.410;2022-08-21T11:04:09;98024.28;;;28.47;51.90
9187;BME280;7273;48.902;9.410;2022-08-21T11:06:37;98034.28;;;28.52;53.61
9187;BME280;7273;48.902;9.410;2022-08-21T11:09:11;98035.50;;;28.89;52.05
9187;BME280;7273;48.902;9.410;2022-08-21T11:11:58;98033.50;;;29.04;48.71
9187;BME280;7273;48.902;9.410;2022-08-21T11:14:34;98029.81;;;29.88;51.22
9187;BME280;7273;48.902;9.410;2022-08-21T11:17:11;98020.94;;;30.14;49.28
9187;BME280;7273;48.902;9.410;2022-08-21T11:20:17;98020.38;;;31.49;48.73
9187;BME280;7273;48.902;9.410;2022-08-21T11:22:46;98016.63;;;32.30;47.17
9187;BME280;7273;48.902;9.410;2022-08-21T11:25:27;98025.38;;;33.39;45.02
9187;BME280;7273;48.902;9.410;2022-08-21T11:28:02;98016.00;;;34.11;47.57
9187;BME280;7273;48.902;9.410;2022-08-21T11:30:58;98023.53;;;34.69;44.06
9187;BME280;7273;48.902;9.410;2022-08-21T11:36:17;98021.28;;;36.30;47.23
9187;BME280;7273;48.902;9.410;2022-08-21T11:38:58;98017.41;;;36.78;42.77
9187;BME280;7273;48.902;9.410;2022-08-21T11:41:36;98012.25;;;36.89;44.13
9187;BME280;7273;48.902;9.410;2022-08-21T11:44:27;98005.34;;;36.90;40.01
9187;BME280;7273;48.902;9.410;2022-08-21T11:47:21;98004.19;;;37.25;37.50
9187;BME280;7273;48.902;9.410;2022-08-21T11:52:35;97995.41;;;38.44;41.67
9187;BME280;7273;48.902;9.410;2022-08-21T11:55:19;97994.88;;;38.58;37.62
9187;BME280;7273;48.902;9.410;2022-08-21T12:00:40;97992.28;;;39.21;42.28
9187;BME280;7273;48.902;9.410;2022-08-21T12:03:13;97999.53;;;38.82;43.89
9187;BME280;7273;48.902;9.410;2022-08-21T12:05:44;97993.44;;;38.93;42.27
9187;BME280;7273;48.902;9.410;2022-08-21T12:16:51;97991.41;;;39.51;33.64
9187;BME280;7273;48.902;9.410;2022-08-21T12:24:41;97990.00;;;38.58;41.51
9187;BME280;7273;48.902;9.410;2022-08-21T12:28:03;97986.50;;;37.81;33.96
9187;BME280;7273;48.902;9.410;2022-08-21T12:30:32;97990.56;;;37.45;38.84
9187;BME280;7273;48.902;9.410;2022-08-21T12:32:59;97978.94;;;36.97;43.35
9187;BME280;7273;48.902;9.410;2022-08-21T12:35:46;97976.97;;;36.06;37.17
9187;BME280;7273;48.902;9.410;2022-08-21T12:38:18;97973.00;;;35.75;42.63
9187;BME280;7273;48.902;9.410;2022-08-21T12:41:06;97963.00;;;34.81;37.45
9187;BME280;7273;48.902;9.410;2022-08-21T12:43:41;97963.91;;;34.07;42.44
9187;BME280;7273;48.902;9.410;2022-08-21T12:46:22;97958.38;;;33.83;40.83
9187;BME280;7273;48.902;9.410;2022-08-21T12:48:58;97941.53;;;33.44;41.85
9187;BME280;7273;48.902;9.410;2022-08-21T12:51:30;97943.06;;;33.49;43.56
9187;BME280;7273;48.902;9.410;2022-08-21T12:53:59;97945.84;;;32.56;45.06
9187;BME280;7273;48.902;9.410;2022-08-21T12:56:32;97937.50;;;32.53;42.30
9187;BME280;7273;48.902;9.410;2022-08-21T12:59:07;97948.63;;;32.30;41.25
9187;BME280;7273;48.902;9.410;2022-08-21T13:01:45;97942.19;;;32.06;39.96
9187;BME280;7273;48.902;9.410;2022-08-21T13:04:17;97936.97;;;31.75;41.25
9187;BME280;7273;48.902;9.410;2022-08-21T13:06:49;97941.28;;;31.83;40.78
9187;BME280;7273;48.902;9.410;2022-08-21T13:09:18;97940.28;;;31.66;39.98
9187;BME280;7273;48.902;9.410;2022-08-21T13:11:47;97935.41;;;31.40;39.50
9187;BME280;7273;48.902;9.410;2022-08-21T13:14:35;97925.06;;;30.96;35.53
9187;BME280;7273;48.902;9.410;2022-08-21T13:17:03;97927.09;;;30.89;39.19
9187;BME280;7273;48.902;9.410;2022-08-21T13:19:29;97934.44;;;30.72;38.90
9187;BME280;7273;48.902;9.410;2022-08-21T13:21:55;97931.47;;;30.46;38.98
9187;BME280;7273;48.902;9.410;2022-08-21T13:24:25;97934.22;;;30.49;38.39
9187;BME280;7273;48.902;9.410;2022-08-21T13:26:54;97927.47;;;30.43;37.44
9187;BME280;7273;48.902;9.410;2022-08-21T13:29:22;97925.69;;;30.08;37.22
9187;BME280;7273;48.902;9.410;2022-08-21T13:31:54;97927.69;;;30.11;36.44
9187;BME280;7273;48.902;9.410;2022-08-21T13:34:23;97922.69;;;29.78;36.05
9187;BME280;7273;48.902;9.410;2022-08-21T13:36:52;97927.88;;;29.76;35.98
9187;BME280;7273;48.902;9.410;2022-08-21T13:39:20;97929.09;;;29.75;35.67
9187;BME280;7273;48.902;9.410;2022-08-21T13:41:49;97921.94;;;29.60;35.20
9187;BME280;7273;48.902;9.410;2022-08-21T13:44:21;97926.72;;;29.60;35.23
9187;BME280;7273;48.902;9.410;2022-08-21T13:46:48;97916.03;;;29.44;34.98
9187;BME280;7273;48.902;9.410;2022-08-21T13:49:17;97912.53;;;29.23;35.20
9187;BME280;7273;48.902;9.410;2022-08-21T13:51:44;97914.56;;;29.08;35.13
9187;BME280;7273;48.902;9.410;2022-08-21T13:54:35;97910.16;;;28.96;31.63
9187;BME280;7273;48.902;9.410;2022-08-21T13:57:02;97908.59;;;29.10;34.65
9187;BME280;7273;48.902;9.410;2022-08-21T13:59:31;97906.56;;;29.07;34.20
9187;BME280;7273;48.902;9.410;2022-08-21T14:02:00;97902.19;;;29.06;34.34
9187;BME280;7273;48.902;9.410;2022-08-21T14:04:33;97912.56;;;28.98;33.24
9187;BME280;7273;48.902;9.410;2022-08-21T14:07:00;97905.03;;;28.63;34.53
9187;BME280;7273;48.902;9.410;2022-08-21T14:09:35;97904.25;;;28.49;33.05
9187;BME280;7273;48.902;9.410;2022-08-21T14:12:24;97897.84;;;28.69;32.04
9187;BME280;7273;48.902;9.410;2022-08-21T14:14:53;97905.44;;;28.65;34.25
9187;BME280;7273;48.902;9.410;2022-08-21T14:17:38;97909.41;;;28.75;32.22
9187;BME280;7273;48.902;9.410;2022-08-21T14:20:11;97903.06;;;28.71;33.54
9187;BME280;7273;48.902;9.410;2022-08-21T14:22:41;97900.28;;;28.64;33.58
9187;BME280;7273;48.902;9.410;2022-08-21T14:25:09;97903.84;;;28.50;33.83
9187;BME280;7273;48.902;9.410;2022-08-21T14:27:40;97904.22;;;28.24;33.77
9187;BME280;7273;48.902;9.410;2022-08-21T14:30:32;97897.84;;;28.13;30.91
9187;BME280;7273;48.902;9.410;2022-08-21T14:32:58;97891.47;;;28.02;33.99
9187;BME280;7273;48.902;9.410;2022-08-21T14:35:24;97891.84;;;28.01;33.96